Time,TemperatureF,DewpointF,PressureIn,WindDirection,WindDirectionDegrees,WindSpeedMPH,WindSpeedGustMPH,Humidity,HourlyPrecipIn,Conditions,Clouds,dailyrainin,SolarRadiationWatts/m^2,SoftwareType,DateUTC
2013-06-24 00:05:00,69.7,67.0,29.94,South,186,0.0,1.0,92,0.00,,,0.00,0,weatherlink.com 1.10,2013-06-24 05:05:00,
2013-06-24 00:20:00,69.6,67.0,29.93,South,186,0.0,1.0,92,0.00,,,0.00,0,weatherlink.com 1.10,2013-06-24 05:20:00,
2013-06-24 00:35:00,69.4,67.0,29.94,South,184,1.0,1.0,93,0.00,,,0.00,0,weatherlink.com 1.10,2013-06-24 05:35:00,
2013-06-24 00:50:00,69.3,67.0,29.94,South,184,0.0,1.0,93,0.00,,,0.00,0,weatherlink.com 1.10,2013-06-24 05:50:00,
2013-06-24 01:05:00,69.2,68.0,29.94,South,184,0.0,0.0,94,0.00,,,0.00,0,weatherlink.com 1.10,2013-06-24 06:05:00,
2013-06-24 01:20:00,69.0,67.0,29.94,South,184,0.0,0.0,94,0.00,,,0.00,0,weatherlink.com 1.10,2013-06-24 06:20:00,
2013-06-24 01:35:00,68.7,67.0,29.94,South,184,0.0,0.0,95,0.00,,,0.00,0,weatherlink.com 1.10,2013-06-24 06:35:00,
2013-06-24 01:50:00,68.6,67.0,29.93,South,184,0.0,0.0,94,0.00,,,0.00,0,weatherlink.com 1.10,2013-06-24 06:50:00,
2013-06-24 02:20:00,68.0,67.0,29.93,South,184,0.0,1.0,95,0.00,,,0.00,0,weatherlink.com 1.10,2013-06-24 07:20:00,
2013-06-24 02:35:00,67.9,67.0,29.93,South,184,0.0,0.0,96,0.00,,,0.00,0,weatherlink.com 1.10,2013-06-24 07:35:00,
2013-06-24 02:50:00,67.8,67.0,29.93,South,184,1.0,1.0,96,0.00,,,0.00,0,weatherlink.com 1.10,2013-06-24 07:50:00,
2013-06-24 03:05:00,67.9,67.0,29.93,South,186,0.0,1.0,96,0.00,,,0.00,0,weatherlink.com 1.10,2013-06-24 08:05:00,
2013-06-24 03:35:00,67.7,67.0,29.93,South,186,0.0,0.0,96,0.00,,,0.00,0,weatherlink.com 1.10,2013-06-24 08:35:00,
2013-06-24 04:05:00,67.5,66.0,29.93,South,186,0.0,0.0,96,0.00,,,0.00,0,weatherlink.com 1.10,2013-06-24 09:05:00,
2013-06-24 04:35:00,67.3,67.0,29.93,South,185,0.0,0.0,97,0.00,,,0.00,0,weatherlink.com 1.10,2013-06-24 09:35:00,
2013-06-24 04:50:00,67.5,67.0,29.93,South,185,0.0,0.0,97,0.00,,,0.00,0,weatherlink.com 1.10,2013-06-24 09:50:00,
2013-06-24 05:05:00,67.6,67.0,29.93,South,185,0.0,0.0,97,0.00,,,0.00,0,weatherlink.com 1.10,2013-06-24 10:05:00,
2013-06-24 05:20:00,67.7,67.0,29.94,South,185,0.0,0.0,97,0.00,,,0.00,0,weatherlink.com 1.10,2013-06-24 10:20:00,
2013-06-24 05:50:00,68.1,67.0,29.94,South,184,0.0,1.0,97,0.00,,,0.00,16,weatherlink.com 1.10,2013-06-24 10:50:00,
2013-06-24 06:05:00,68.2,67.0,29.94,South,184,0.0,0.0,97,0.00,,,0.00,26,weatherlink.com 1.10,2013-06-24 11:05:00,
2013-06-24 06:20:00,68.2,67.0,29.94,South,184,0.0,0.0,97,0.00,,,0.00,42,weatherlink.com 1.10,2013-06-24 11:20:00,
2013-06-24 06:35:00,68.4,68.0,29.94,South,184,0.0,0.0,97,0.00,,,0.00,53,weatherlink.com 1.10,2013-06-24 11:35:00,
2013-06-24 06:50:00,68.6,68.0,29.95,South,184,0.0,1.0,97,0.00,,,0.00,77,weatherlink.com 1.10,2013-06-24 11:50:00,
2013-06-24 07:05:00,69.0,68.0,29.95,South,184,0.0,1.0,97,0.00,,,0.00,97,weatherlink.com 1.10,2013-06-24 12:05:00,
2013-06-24 07:20:00,69.4,68.0,29.95,South,184,0.0,1.0,96,0.00,,,0.00,95,weatherlink.com 1.10,2013-06-24 12:20:00,
2013-06-24 07:51:00,70.0,69.0,29.96,SSW,194,0.0,3.0,95,0.00,,,0.00,142,weatherlink.com 1.10,2013-06-24 12:51:00,
2013-06-24 08:21:00,70.9,69.0,29.97,SSW,206,0.0,3.0,93,0.00,,,0.00,165,weatherlink.com 1.10,2013-06-24 13:21:00,
2013-06-24 08:36:00,71.1,69.0,29.98,SSW,192,1.0,5.0,93,0.00,,,0.00,160,weatherlink.com 1.10,2013-06-24 13:36:00,
2013-06-24 08:51:00,71.3,69.0,29.99,SSW,209,0.0,2.0,92,0.00,,,0.00,151,weatherlink.com 1.10,2013-06-24 13:51:00,
2013-06-24 09:06:00,71.5,69.0,29.99,SW,222,0.0,3.0,92,0.00,,,0.00,258,weatherlink.com 1.10,2013-06-24 14:06:00,
2013-06-24 09:36:00,71.9,69.0,29.98,SSW,201,1.0,4.0,90,0.00,,,0.00,232,weatherlink.com 1.10,2013-06-24 14:36:00,
2013-06-24 09:51:00,72.2,69.0,29.98,SSW,205,2.0,3.0,90,0.00,,,0.00,167,weatherlink.com 1.10,2013-06-24 14:51:00,
2013-06-24 10:21:00,72.1,69.0,29.98,SSW,200,0.0,2.0,89,0.00,,,0.00,234,weatherlink.com 1.10,2013-06-24 15:21:00,
2013-06-24 10:36:00,73.5,70.0,29.98,SSW,212,0.0,3.0,89,0.00,,,0.00,387,weatherlink.com 1.10,2013-06-24 15:36:00,
2013-06-24 10:51:00,74.4,70.0,29.98,SW,227,1.0,4.0,86,0.00,,,0.00,381,weatherlink.com 1.10,2013-06-24 15:51:00,
2013-06-24 11:06:00,74.4,69.0,29.99,WSW,252,6.0,9.0,83,0.00,,,0.00,443,weatherlink.com 1.10,2013-06-24 16:06:00,
2013-06-24 11:21:00,74.8,69.0,29.98,WSW,238,3.0,8.0,83,0.00,,,0.00,432,weatherlink.com 1.10,2013-06-24 16:21:00,
2013-06-24 11:36:00,74.9,68.0,29.97,SSW,209,2.0,6.0,80,0.00,,,0.00,461,weatherlink.com 1.10,2013-06-24 16:36:00,
2013-06-24 11:51:00,75.4,69.0,29.96,SSW,209,1.0,6.0,81,0.00,,,0.00,531,weatherlink.com 1.10,2013-06-24 16:51:00,
2013-06-24 12:06:00,76.2,70.0,29.96,SSW,207,3.0,5.0,81,0.00,,,0.00,719,weatherlink.com 1.10,2013-06-24 17:06:00,
2013-06-24 12:21:00,76.1,70.0,29.95,WSW,238,7.0,11.0,81,0.00,,,0.00,633,weatherlink.com 1.10,2013-06-24 17:21:00,
2013-06-24 12:36:00,76.5,70.0,29.97,SW,225,3.0,8.0,79,0.00,,,0.00,698,weatherlink.com 1.10,2013-06-24 17:36:00,
2013-06-24 12:51:00,75.9,68.0,29.97,SSW,211,1.0,5.0,77,0.00,,,0.00,367,weatherlink.com 1.10,2013-06-24 17:51:00,
2013-06-24 13:21:00,75.1,69.0,29.96,SSW,201,0.0,3.0,81,0.00,,,0.00,329,weatherlink.com 1.10,2013-06-24 18:21:00,
2013-06-24 13:36:00,75.3,68.0,29.95,SSW,196,0.0,2.0,79,0.00,,,0.00,320,weatherlink.com 1.10,2013-06-24 18:36:00,
2013-06-24 13:51:00,75.3,68.0,29.94,SSE,168,0.0,2.0,78,0.00,,,0.00,336,weatherlink.com 1.10,2013-06-24 18:51:00,
2013-06-24 14:06:00,75.7,69.0,29.93,SSE,168,0.0,1.0,79,0.00,,,0.00,469,weatherlink.com 1.10,2013-06-24 19:06:00,
2013-06-24 14:21:00,76.8,69.0,29.91,South,190,0.0,1.0,78,0.00,,,0.00,624,weatherlink.com 1.10,2013-06-24 19:21:00,
2013-06-24 14:37:00,77.9,69.0,29.89,South,173,0.0,1.0,75,0.00,,,0.00,459,weatherlink.com 1.10,2013-06-24 19:37:00,
2013-06-24 15:07:00,78.5,70.0,29.89,SE,136,0.0,2.0,75,0.00,,,0.00,677,weatherlink.com 1.10,2013-06-24 20:07:00,
2013-06-24 15:22:00,79.4,72.0,29.90,SSW,207,0.0,2.0,77,0.00,,,0.00,548,weatherlink.com 1.10,2013-06-24 20:22:00,
2013-06-24 15:37:00,79.7,70.0,29.91,SSE,157,1.0,2.0,73,0.00,,,0.00,612,weatherlink.com 1.10,2013-06-24 20:37:00,
2013-06-24 15:52:00,79.6,71.0,29.91,SSW,202,0.0,1.0,75,0.00,,,0.00,570,weatherlink.com 1.10,2013-06-24 20:52:00,
2013-06-24 16:07:00,79.8,72.0,29.91,SSW,194,2.0,2.0,77,0.00,,,0.00,584,weatherlink.com 1.10,2013-06-24 21:07:00,
2013-06-24 16:37:00,79.1,71.0,29.91,South,175,0.0,3.0,76,0.00,,,0.00,489,weatherlink.com 1.10,2013-06-24 21:37:00,
2013-06-24 16:52:00,79.1,71.0,29.91,South,172,1.0,3.0,76,0.00,,,0.00,394,weatherlink.com 1.10,2013-06-24 21:52:00,
2013-06-24 17:07:00,78.4,70.0,29.91,South,171,0.0,4.0,76,0.00,,,0.00,316,weatherlink.com 1.10,2013-06-24 22:07:00,
2013-06-24 17:37:00,77.6,71.0,29.89,SSW,202,2.0,3.0,80,0.00,,,0.00,172,weatherlink.com 1.10,2013-06-24 22:37:00,
2013-06-24 17:52:00,77.1,71.0,29.89,SSW,203,2.0,3.0,80,0.00,,,0.00,142,weatherlink.com 1.10,2013-06-24 22:52:00,
2013-06-24 18:07:00,76.9,71.0,29.88,SW,218,0.0,1.0,82,0.00,,,0.00,139,weatherlink.com 1.10,2013-06-24 23:07:00,
2013-06-24 18:22:00,76.8,71.0,29.88,SW,217,0.0,2.0,82,0.00,,,0.00,114,weatherlink.com 1.10,2013-06-24 23:22:00,
2013-06-24 18:52:00,76.2,71.0,29.87,WSW,250,4.0,6.0,83,0.00,,,0.00,79,weatherlink.com 1.10,2013-06-24 23:52:00,
2013-06-24 19:07:00,75.7,69.0,29.87,WSW,245,5.0,9.0,79,0.00,,,0.00,74,weatherlink.com 1.10,2013-06-25 00:07:00,
2013-06-24 19:22:00,75.2,69.0,29.87,WSW,246,4.0,8.0,80,0.00,,,0.00,54,weatherlink.com 1.10,2013-06-25 00:22:00,
2013-06-24 19:37:00,74.6,69.0,29.86,WSW,247,2.0,6.0,82,0.00,,,0.00,33,weatherlink.com 1.10,2013-06-25 00:37:00,
2013-06-24 19:52:00,74.0,69.0,29.85,WSW,252,0.0,1.0,84,0.00,,,0.00,16,weatherlink.com 1.10,2013-06-25 00:52:00,
2013-06-24 20:07:00,73.6,69.0,29.83,WSW,252,0.0,0.0,85,0.00,,,0.00,12,weatherlink.com 1.10,2013-06-25 01:07:00,
2013-06-24 20:22:00,72.9,68.0,29.81,East,98,0.0,2.0,85,0.00,,,0.00,7,weatherlink.com 1.10,2013-06-25 01:22:00,
2013-06-24 20:37:00,72.6,69.0,29.83,East,99,0.0,0.0,87,0.00,,,0.00,0,weatherlink.com 1.10,2013-06-25 01:37:00,
2013-06-24 20:52:00,72.1,69.0,29.85,East,100,0.0,0.0,89,0.00,,,0.00,0,weatherlink.com 1.10,2013-06-25 01:52:00,
2013-06-24 21:07:00,71.7,68.0,29.86,SSE,161,0.0,1.0,88,0.00,,,0.00,0,weatherlink.com 1.10,2013-06-25 02:07:00,
2013-06-24 21:22:00,71.6,68.0,29.86,SSE,161,0.0,1.0,88,0.00,,,0.00,0,weatherlink.com 1.10,2013-06-25 02:22:00,
2013-06-24 21:51:00,71.2,68.0,29.86,SSE,161,0.0,0.0,89,0.00,,,0.00,0,weatherlink.com 1.10,2013-06-25 02:51:00,
2013-06-24 22:07:00,70.8,68.0,29.87,SSE,161,0.0,0.0,90,0.00,,,0.00,0,weatherlink.com 1.10,2013-06-25 03:07:00,
2013-06-24 22:22:00,70.6,68.0,29.88,SSE,161,0.0,0.0,90,0.00,,,0.00,0,weatherlink.com 1.10,2013-06-25 03:22:00,
2013-06-24 22:37:00,70.4,68.0,29.89,SSE,161,0.0,0.0,91,0.00,,,0.00,0,weatherlink.com 1.10,2013-06-25 03:37:00,
2013-06-24 23:07:00,70.4,68.0,29.89,SSW,198,0.0,0.0,92,0.00,,,0.00,0,weatherlink.com 1.10,2013-06-25 04:07:00,
2013-06-24 23:22:00,70.5,68.0,29.89,SW,220,0.0,2.0,92,0.00,,,0.00,0,weatherlink.com 1.10,2013-06-25 04:22:00,
2013-06-24 23:37:00,70.6,68.0,29.89,WSW,244,0.0,2.0,92,0.00,,,0.00,0,weatherlink.com 1.10,2013-06-25 04:37:00,
2013-06-24 23:52:00,70.6,68.0,29.88,SW,225,0.0,1.0,91,0.00,,,0.00,0,weatherlink.com 1.10,2013-06-25 04:52:00,